Time;durP1;ratioP1;P1;durP2;ratioP2;P2;SDS_P1;SDS_P2;PMS_P1;PMS_P2;Temp;Humidity;BMP_temperature;BMP_pressure;BME280_temperature;BME280_humidity;BME280_pressure;Samples;Min_cycle;Max_cycle;Signal;HPM_P1;HPM_P2
2021/04/06 00:01:46;;;;;;;9.30;4.43;;;;;;;1.07;74.20;98878.84;104411;1104;83487;-69
2021/04/06 00:03:54;;;;;;;9.93;4.70;;;;;;;1.06;74.55;98885.98;104395;1104;78598;-67
2021/04/06 00:06:04;;;;;;;9.13;3.97;;;;;;;1.05;74.09;98884.30;104392;1104;64083;-65
2021/04/06 00:08:13;;;;;;;9.57;4.05;;;;;;;1.03;73.83;98886.31;104379;1104;82180;-68
2021/04/06 00:10:28;;;;;;;9.48;4.13;;;;;;;1.03;73.69;98896.11;104389;1104;72189;-69
2021/04/06 00:12:35;;;;;;;9.70;4.27;;;;;;;0.98;74.33;98887.80;104398;1104;83643;-66
2021/04/06 00:14:42;;;;;;;8.03;4.03;;;;;;;0.94;73.97;98886.45;104386;1104;76847;-68
2021/04/06 00:16:50;;;;;;;8.88;5.15;;;;;;;0.87;73.91;98880.98;104385;1104;64083;-67
2021/04/06 00:18:57;;;;;;;9.60;4.60;;;;;;;0.82;74.23;98898.42;104404;1105;81984;-66
2021/04/06 00:21:08;;;;;;;8.00;4.03;;;;;;;0.81;74.16;98899.41;104423;1104;71543;-69
2021/04/06 00:23:19;;;;;;;9.32;4.10;;;;;;;0.84;74.22;98901.73;104388;1104;83426;-67
2021/04/06 00:25:30;;;;;;;8.60;4.68;;;;;;;0.83;74.22;98905.38;104370;1104;77916;-68
2021/04/06 00:27:38;;;;;;;8.90;4.28;;;;;;;0.81;74.27;98912.70;104364;1104;64179;-69
2021/04/06 00:29:48;;;;;;;8.45;4.72;;;;;;;0.76;73.97;98899.91;104379;1104;81558;-68
2021/04/06 00:31:59;;;;;;;8.07;4.27;;;;;;;0.74;74.64;98909.05;104397;1104;71121;-68
2021/04/06 00:34:05;;;;;;;8.30;4.05;;;;;;;0.70;74.57;98910.35;104418;1104;84117;-65
2021/04/06 00:36:11;;;;;;;8.33;4.20;;;;;;;0.67;74.49;98915.98;104353;1104;78665;-66
2021/04/06 00:38:18;;;;;;;9.93;4.60;;;;;;;0.66;74.53;98907.18;104389;1105;64247;-67
2021/04/06 00:40:31;;;;;;;10.80;4.73;;;;;;;0.67;74.73;98908.02;104335;1103;80726;-69
2021/04/06 00:42:39;;;;;;;9.48;4.95;;;;;;;0.62;74.47;98913.00;104346;1104;71139;-68
2021/04/06 00:44:49;;;;;;;8.82;4.35;;;;;;;0.62;74.07;98913.00;104348;1104;83413;-69
2021/04/06 00:46:55;;;;;;;8.93;4.40;;;;;;;0.58;74.34;98923.11;104379;1105;77151;-69
2021/04/06 00:49:03;;;;;;;11.30;4.65;;;;;;;0.54;74.59;98927.94;104371;1104;64090;-67
2021/04/06 00:51:13;;;;;;;7.78;4.75;;;;;;;0.53;74.37;98920.11;104383;1104;81289;-67
2021/04/06 00:53:19;;;;;;;8.88;4.32;;;;;;;0.50;74.91;98921.27;104417;1104;71866;-69
2021/04/06 00:55:36;;;;;;;8.80;4.50;;;;;;;0.46;74.59;98929.73;104366;1104;84285;-70
2021/04/06 00:57:45;;;;;;;11.13;4.53;;;;;;;0.45;74.96;98947.48;104384;1104;77347;-69
2021/04/06 01:00:19;;;;;;;7.35;3.80;;;;;;;0.40;74.46;98939.17;104375;1104;64121;-69
2021/04/06 01:02:26;;;;;;;7.43;4.10;;;;;;;0.39;75.05;98934.00;104418;1104;82215;-68
2021/04/06 01:04:36;;;;;;;10.13;4.35;;;;;;;0.37;75.12;98944.80;104421;1104;70707;-67
2021/04/06 01:07:06;;;;;;;6.93;3.67;;;;;;;0.32;74.70;98938.31;104397;1104;83982;-67
2021/04/06 01:09:11;;;;;;;9.45;4.05;;;;;;;0.28;74.92;98945.75;104431;1105;78182;-69
2021/04/06 01:11:20;;;;;;;10.23;3.80;;;;;;;0.31;74.80;98952.57;104387;1104;64332;-69
2021/04/06 01:13:27;;;;;;;10.25;4.07;;;;;;;0.30;74.77;98957.04;104430;1104;82491;-70
2021/04/06 01:15:35;;;;;;;10.67;3.97;;;;;;;0.35;74.73;98965.39;104419;1104;70684;-69
2021/04/06 01:17:41;;;;;;;6.93;3.23;;;;;;;0.37;75.05;98955.42;104396;1104;83931;-69
2021/04/06 01:19:47;;;;;;;8.55;3.65;;;;;;;0.33;74.63;98955.92;104381;1104;77029;-68
2021/04/06 01:21:54;;;;;;;9.80;4.38;;;;;;;0.33;74.80;98966.55;104376;1104;64282;-70
2021/04/06 01:24:00;;;;;;;7.00;3.75;;;;;;;0.32;74.99;98965.70;104382;1104;81724;-67
2021/04/06 01:26:13;;;;;;;7.87;3.57;;;;;;;0.34;74.90;98968.19;104358;1104;71541;-68
2021/04/06 01:28:22;;;;;;;7.55;3.08;;;;;;;0.48;74.62;98967.58;104383;1104;83406;-69
2021/04/06 01:30:43;;;;;;;9.67;3.90;;;;;;;0.52;75.32;98964.44;104415;1104;77564;-67
2021/04/06 01:32:50;;;;;;;7.68;3.65;;;;;;;0.58;74.68;98977.08;104404;1104;64141;-66
2021/04/06 01:34:57;;;;;;;10.30;4.13;;;;;;;0.64;74.99;98986.23;104364;1104;82034;-65
2021/04/06 01:37:05;;;;;;;7.53;4.07;;;;;;;0.70;74.85;98990.07;104403;1104;72176;-65
2021/04/06 01:39:16;;;;;;;8.70;3.60;;;;;;;0.73;74.63;98984.44;104427;1104;84144;-68
2021/04/06 01:41:25;;;;;;;8.40;3.73;;;;;;;0.78;75.20;98993.59;104352;1104;79359;-69
2021/04/06 01:43:31;;;;;;;7.43;3.65;;;;;;;0.78;74.86;98990.09;104374;1103;64295;-68
2021/04/06 01:45:43;;;;;;;9.65;3.80;;;;;;;0.84;74.46;98992.11;104387;1105;81702;-69
2021/04/06 01:47:49;;;;;;;6.80;3.33;;;;;;;0.83;74.88;98990.44;104404;1104;70838;-65
2021/04/06 01:49:55;;;;;;;7.32;3.42;;;;;;;0.89;75.02;98998.61;104390;1104;83112;-66
2021/04/06 01:52:03;;;;;;;5.80;2.80;;;;;;;0.95;74.36;98994.47;104366;1104;77026;-65
2021/04/06 01:54:12;;;;;;;7.88;2.97;;;;;;;1.00;74.78;98997.47;104406;1104;64352;-68
2021/04/06 01:56:28;;;;;;;6.85;3.15;;;;;;;0.99;74.44;98991.31;104394;1104;82191;-68
2021/04/06 01:58:42;;;;;;;6.15;2.90;;;;;;;0.99;74.56;98995.82;104397;1104;71136;-65
2021/04/06 02:01:01;;;;;;;6.30;2.90;;;;;;;1.01;74.38;98999.98;104379;1104;84347;-65
2021/04/06 02:03:14;;;;;;;6.85;3.00;;;;;;;1.04;74.73;99004.94;104376;1103;77594;-66
2021/04/06 02:05:21;;;;;;;7.13;3.08;;;;;;;1.08;74.19;99006.30;104405;1105;64115;-66
2021/04/06 02:07:31;;;;;;;6.50;3.00;;;;;;;1.08;74.22;99002.80;104336;1104;80549;-66
2021/04/06 02:09:38;;;;;;;7.18;3.00;;;;;;;1.04;74.03;99006.80;104368;1104;71766;-66
2021/04/06 02:11:45;;;;;;;9.13;3.50;;;;;;;1.05;74.21;99011.09;104395;1104;84712;-66
2021/04/06 02:13:51;;;;;;;6.85;3.25;;;;;;;1.04;74.01;99006.80;104434;1104;77914;-64
2021/04/06 02:16:00;;;;;;;7.05;2.55;;;;;;;1.04;73.83;99009.45;104387;1105;64188;-65
2021/04/06 02:18:06;;;;;;;7.60;3.05;;;;;;;1.03;73.95;99007.78;104450;1104;81004;-68
2021/04/06 02:20:23;;;;;;;7.70;3.70;;;;;;;1.02;74.02;99019.39;104391;1104;72114;-67
2021/04/06 02:22:28;;;;;;;8.38;2.75;;;;;;;1.03;74.00;99019.25;104420;1104;84675;-65
2021/04/06 02:24:38;;;;;;;7.93;3.15;;;;;;;1.05;73.78;99019.91;104375;1104;78179;-66
2021/04/06 02:26:46;;;;;;;7.72;3.15;;;;;;;1.04;73.61;99017.43;104428;1104;64249;-66
2021/04/06 02:28:55;;;;;;;7.07;3.65;;;;;;;1.07;73.48;99022.42;104419;1104;81480;-68
2021/04/06 02:31:03;;;;;;;7.17;2.70;;;;;;;1.06;73.74;99018.92;104390;1104;72262;-68
2021/04/06 02:33:09;;;;;;;8.88;3.60;;;;;;;1.07;73.53;99022.42;104390;1104;84929;-69
2021/04/06 02:35:16;;;;;;;7.00;2.73;;;;;;;1.06;74.03;99016.27;104348;1104;78159;-70
2021/04/06 02:37:24;;;;;;;6.77;3.20;;;;;;;1.04;73.84;99026.21;104353;1104;64275;-67
2021/04/06 02:39:38;;;;;;;9.93;3.13;;;;;;;1.06;73.65;99029.56;104404;1104;81514;-69
2021/04/06 02:41:44;;;;;;;9.05;2.90;;;;;;;1.08;73.77;99027.56;104393;1104;70732;-68
2021/04/06 02:43:52;;;;;;;8.00;2.70;;;;;;;1.10;73.38;99035.37;104397;1104;85304;-65
2021/04/06 02:46:00;;;;;;;6.30;2.47;;;;;;;1.09;73.37;99044.36;104405;1104;78172;-66
2021/04/06 02:48:12;;;;;;;6.45;2.75;;;;;;;1.09;73.35;99045.20;104365;1104;64141;-66
2021/04/06 02:50:21;;;;;;;7.70;2.63;;;;;;;1.08;73.64;99037.36;104410;1105;80925;-65
2021/04/06 02:52:28;;;;;;;6.47;2.40;;;;;;;1.08;73.30;99042.69;104382;1104;71614;-68
2021/04/06 02:54:34;;;;;;;3.63;2.20;;;;;;;1.09;73.20;99047.02;104412;1104;84557;-68
2021/04/06 02:56:40;;;;;;;6.70;2.53;;;;;;;1.09;73.12;99044.36;104382;1104;77808;-65
2021/04/06 02:58:49;;;;;;;4.68;2.40;;;;;;;1.10;73.07;99046.00;104401;1104;64137;-68
2021/04/06 03:00:54;;;;;;;7.43;2.55;;;;;;;1.11;73.16;99048.52;104379;1104;80637;-68
2021/04/06 03:03:02;;;;;;;6.90;2.47;;;;;;;1.13;73.60;99037.70;104376;1104;72598;-66
2021/04/06 03:05:10;;;;;;;6.83;2.80;;;;;;;1.12;73.52;99042.22;104376;1104;84133;-65
2021/04/06 03:07:24;;;;;;;5.83;2.37;;;;;;;1.16;73.26;99042.70;104389;1104;77438;-67
2021/04/06 03:09:29;;;;;;;-1.00;-1.00;;;;;;;1.14;73.39;99042.04;104432;1104;64131;-65
2021/04/06 03:11:45;;;;;;;6.75;2.45;;;;;;;1.15;73.37;99051.70;104445;1104;81512;-65
2021/04/06 03:13:52;;;;;;;5.30;2.23;;;;;;;1.15;73.36;99044.52;104431;1104;71409;-65
2021/04/06 03:15:59;;;;;;;8.02;2.55;;;;;;;1.12;73.44;99042.22;104399;1104;84841;-66
2021/04/06 03:18:07;;;;;;;7.00;2.40;;;;;;;1.15;73.25;99043.72;104332;1105;77947;-68
2021/04/06 03:20:18;;;;;;;8.05;2.53;;;;;;;1.14;73.06;99044.70;104387;1104;64131;-68
2021/04/06 03:22:23;;;;;;;9.80;4.05;;;;;;;1.18;73.29;99035.41;104419;1105;81811;-65
2021/04/06 03:24:32;;;;;;;6.03;2.50;;;;;;;1.21;73.30;99042.23;104382;1104;72422;-67
2021/04/06 03:26:37;;;;;;;5.67;2.20;;;;;;;1.27;73.22;99045.05;104435;1104;85325;-66
2021/04/06 03:28:45;;;;;;;6.70;2.43;;;;;;;1.25;72.96;99039.07;104361;1104;79350;-69
2021/04/06 03:30:50;;;;;;;7.13;2.65;;;;;;;1.24;73.56;99042.72;104401;1103;64083;-65
2021/04/06 03:33:00;;;;;;;8.85;3.33;;;;;;;1.23;73.33;99046.39;104344;1105;82419;-67
2021/04/06 03:35:11;;;;;;;6.75;2.55;;;;;;;1.20;73.29;99049.38;104413;1104;70657;-68
2021/04/06 03:37:17;;;;;;;7.37;2.70;;;;;;;1.14;73.46;99053.52;104374;1104;84877;-67
2021/04/06 03:39:23;;;;;;;5.32;2.53;;;;;;;1.16;73.98;99053.34;104373;1104;76862;-67
2021/04/06 03:41:31;;;;;;;4.43;2.10;;;;;;;1.14;73.52;99048.20;104391;1104;64076;-68
2021/04/06 03:43:42;;;;;;;4.75;3.17;;;;;;;1.08;73.89;99048.00;104446;1104;81440;-66
2021/04/06 03:46:03;;;;;;;9.27;2.65;;;;;;;1.01;73.68;99047.84;104491;1104;71410;-65
2021/04/06 03:48:22;;;;;;;8.27;2.70;;;;;;;0.99;73.78;99051.66;104491;1104;84589;-68
2021/04/06 03:50:38;;;;;;;6.00;1.98;;;;;;;0.94;73.75;99049.45;104415;1104;78304;-67
2021/04/06 03:53:02;;;;;;;6.55;2.40;;;;;;;0.86;74.52;99043.28;104446;1104;63987;-65
2021/04/06 03:55:14;;;;;;;6.32;2.42;;;;;;;0.82;74.38;99041.95;104388;1104;81332;-64
2021/04/06 03:57:29;;;;;;;4.95;2.42;;;;;;;0.77;73.69;99039.75;104459;1104;71261;-68
2021/04/06 03:59:37;;;;;;;6.78;3.20;;;;;;;0.71;74.34;99039.58;104401;1104;83883;-71
2021/04/06 04:01:43;;;;;;;6.60;2.60;;;;;;;0.66;74.20;99048.02;104355;1104;78191;-70
2021/04/06 04:03:49;;;;;;;7.10;2.78;;;;;;;0.56;73.77;99048.16;104384;1104;64194;-67
2021/04/06 04:05:54;;;;;;;7.82;2.45;;;;;;;0.51;73.89;99049.62;104366;1104;80450;-66
2021/04/06 04:08:04;;;;;;;5.28;2.30;;;;;;;0.50;74.02;99050.59;104393;1104;72419;-66
2021/04/06 04:10:12;;;;;;;5.73;2.33;;;;;;;0.47;74.00;99053.56;104412;1104;84716;-67
2021/04/06 04:12:20;;;;;;;7.03;2.45;;;;;;;0.43;73.83;99055.73;104404;1103;78506;-66
2021/04/06 04:14:29;;;;;;;7.40;2.40;;;;;;;0.35;73.98;99054.85;104409;1104;64422;-69
2021/04/06 04:16:36;;;;;;;5.13;2.38;;;;;;;0.30;74.30;99063.27;104375;1104;82097;-69
2021/04/06 04:18:42;;;;;;;4.70;2.53;;;;;;;0.30;74.11;99059.80;104352;1104;71640;-65
2021/04/06 04:20:47;;;;;;;6.07;2.30;;;;;;;0.30;74.41;99057.95;104400;1103;84796;-66
2021/04/06 04:22:56;;;;;;;6.10;2.50;;;;;;;0.41;75.15;99063.00;104384;1104;79789;-65
2021/04/06 04:25:02;;;;;;;10.55;3.03;;;;;;;0.52;74.41;99062.73;104391;1104;64035;-65
2021/04/06 04:27:08;;;;;;;6.35;2.25;;;;;;;0.56;74.23;99069.41;104382;1104;82134;-67
2021/04/06 04:29:14;;;;;;;5.40;2.22;;;;;;;0.58;74.27;99063.92;104363;1104;70677;-66
2021/04/06 04:31:19;;;;;;;6.93;2.87;;;;;;;0.71;74.81;99077.63;104393;1105;84895;-65
2021/04/06 04:33:25;;;;;;;8.23;2.60;;;;;;;0.91;74.20;99073.70;104379;1104;79333;-67
2021/04/06 04:35:34;;;;;;;5.55;2.60;;;;;;;1.14;74.47;99068.63;104378;1105;64144;-68
2021/04/06 04:37:40;;;;;;;6.25;2.35;;;;;;;1.36;74.22;99061.86;104357;1105;82978;-66
2021/04/06 04:39:46;;;;;;;8.95;3.10;;;;;;;1.56;74.48;99064.07;104387;1105;72390;-65
2021/04/06 04:41:54;;;;;;;6.50;2.58;;;;;;;1.80;74.21;99063.23;104399;1104;85194;-66
2021/04/06 04:44:03;;;;;;;6.60;2.63;;;;;;;2.37;73.94;99058.67;104440;1104;77653;-67
2021/04/06 04:46:11;;;;;;;8.77;3.00;;;;;;;3.62;73.87;99067.45;104376;1104;64083;-71
2021/04/06 04:48:17;;;;;;;5.22;1.98;;;;;;;4.17;72.81;99053.80;104412;1104;80566;-69
2021/04/06 04:50:24;;;;;;;7.68;2.38;;;;;;;4.06;71.72;99054.23;104375;1104;71235;-69
2021/04/06 04:52:30;;;;;;;6.78;2.65;;;;;;;3.93;71.37;99046.81;104375;1104;84441;-69
2021/04/06 04:54:35;;;;;;;7.60;2.37;;;;;;;4.50;72.09;99049.79;104404;1104;78261;-69
2021/04/06 04:56:41;;;;;;;4.78;2.15;;;;;;;5.08;70.69;99048.90;104380;1104;64057;-69
2021/04/06 04:58:46;;;;;;;5.60;2.60;;;;;;;5.65;70.68;99054.30;104338;1104;82040;-65
2021/04/06 05:00:51;;;;;;;6.13;2.65;;;;;;;6.18;69.43;99038.73;104377;1104;71235;-66
2021/04/06 05:02:57;;;;;;;6.97;2.60;;;;;;;6.62;68.92;99038.41;104405;1104;84281;-69
2021/04/06 05:05:03;;;;;;;5.37;2.27;;;;;;;6.85;67.21;99039.78;104360;1104;77662;-68
2021/04/06 05:07:08;;;;;;;6.68;2.78;;;;;;;6.28;66.62;99050.77;104413;1104;64064;-68
2021/04/06 05:09:14;;;;;;;5.95;2.53;;;;;;;5.90;66.07;99052.94;104395;1104;83314;-68
2021/04/06 05:11:20;;;;;;;4.93;2.45;;;;;;;6.02;66.66;99045.18;104427;1104;71437;-70
2021/04/06 05:13:26;;;;;;;6.33;2.60;;;;;;;6.58;66.13;99053.23;104397;1104;84439;-66
2021/04/06 05:15:33;;;;;;;6.90;2.90;;;;;;;7.27;65.44;99057.53;104360;1104;78975;-66
2021/04/06 05:17:38;;;;;;;6.85;3.00;;;;;;;7.20;64.16;99061.22;104360;1104;64105;-66
2021/04/06 05:19:44;;;;;;;5.20;2.42;;;;;;;6.63;64.25;99058.83;104396;1104;82285;-66
2021/04/06 05:21:49;;;;;;;6.73;2.47;;;;;;;6.41;63.76;99058.07;104401;1104;72163;-66
2021/04/06 05:23:56;;;;;;;4.80;2.53;;;;;;;5.90;63.63;99076.22;104422;1104;83468;-66
2021/04/06 05:26:01;;;;;;;5.80;2.70;;;;;;;5.39;64.28;99080.78;104346;1104;77188;-66
2021/04/06 05:28:07;;;;;;;6.97;3.10;;;;;;;5.17;64.55;99085.26;104359;1104;64070;-69
2021/04/06 05:30:15;;;;;;;6.80;3.58;;;;;;;4.98;64.77;99083.16;104367;1104;83078;-69
2021/04/06 05:32:20;;;;;;;7.22;2.83;;;;;;;4.73;64.67;99087.96;104381;1104;71661;-66
2021/04/06 05:34:29;;;;;;;7.18;2.80;;;;;;;4.72;65.02;99093.51;104376;1104;83130;-68
2021/04/06 05:36:34;;;;;;;6.27;2.80;;;;;;;4.75;65.09;99095.82;104369;1104;77303;-66
2021/04/06 05:38:40;;;;;;;5.80;3.50;;;;;;;4.56;65.15;99099.84;104342;1104;64185;-71
2021/04/06 05:40:45;;;;;;;6.10;3.30;;;;;;;4.46;65.24;99099.28;104383;1104;81966;-69
2021/04/06 05:42:51;;;;;;;6.82;3.58;;;;;;;4.31;65.21;99106.46;104419;1104;71251;-64
2021/04/06 05:44:57;;;;;;;6.55;3.35;;;;;;;4.11;65.26;99107.96;104362;1105;85336;-66
2021/04/06 05:47:06;;;;;;;6.33;3.17;;;;;;;4.08;65.53;99108.31;104343;1104;79405;-66
2021/04/06 05:49:19;;;;;;;5.28;3.00;;;;;;;3.95;65.64;99111.61;104354;1105;64044;-66
2021/04/06 05:51:26;;;;;;;6.30;3.30;;;;;;;3.77;65.97;99112.89;104343;1103;81778;-66
2021/04/06 05:53:31;;;;;;;9.68;3.55;;;;;;;3.75;65.97;99122.92;104346;1104;71234;-64
2021/04/06 05:55:37;;;;;;;7.18;3.65;;;;;;;3.72;66.57;99110.76;104421;1104;83639;-67
2021/04/06 05:57:42;;;;;;;6.95;3.30;;;;;;;3.69;66.43;99120.95;104366;1104;77586;-67
2021/04/06 05:59:48;;;;;;;10.60;6.40;;;;;;;3.60;66.71;99122.84;104381;1104;64247;-66
2021/04/06 06:01:53;;;;;;;7.47;3.60;;;;;;;3.42;66.96;99125.80;104379;1104;84384;-66
2021/04/06 06:03:59;;;;;;;8.65;3.38;;;;;;;3.44;66.88;99129.11;104489;1104;71590;-65
2021/04/06 06:06:05;;;;;;;6.85;3.28;;;;;;;3.40;66.98;99137.66;104444;1104;84002;-66
2021/04/06 06:08:14;;;;;;;10.20;4.45;;;;;;;3.42;67.13;99139.14;104427;1104;78515;-65
2021/04/06 06:10:31;;;;;;;7.38;3.35;;;;;;;3.37;67.24;99135.33;104396;1104;64070;-66
2021/04/06 06:12:37;;;;;;;10.80;3.83;;;;;;;3.35;67.15;99143.49;104403;1104;82291;-64
2021/04/06 06:14:44;;;;;;;7.25;3.15;;;;;;;3.32;67.33;99159.05;104393;1104;72322;-66
2021/04/06 06:16:50;;;;;;;6.60;3.35;;;;;;;3.22;67.36;99164.58;104429;1104;83913;-64
2021/04/06 06:19:06;;;;;;;6.90;3.08;;;;;;;3.19;67.81;99166.75;104383;1105;78861;-65
2021/04/06 06:21:12;;;;;;;8.13;3.22;;;;;;;3.15;67.65;99160.95;104432;1104;64236;-65
2021/04/06 06:23:24;;;;;;;7.57;3.63;;;;;;;3.17;67.75;99174.10;104377;1104;82956;-72
2021/04/06 06:25:30;;;;;;;7.38;3.40;;;;;;;3.13;67.92;99178.94;104376;1104;71491;-72
2021/04/06 06:27:38;;;;;;;5.97;3.38;;;;;;;3.08;67.92;99178.63;104382;1104;84290;-71
2021/04/06 06:29:46;;;;;;;9.30;3.58;;;;;;;3.05;67.85;99178.16;104407;1104;77742;-71
2021/04/06 06:31:55;;;;;;;9.55;3.92;;;;;;;3.02;68.05;99182.01;104375;1105;64108;-71
2021/04/06 06:34:00;;;;;;;9.93;3.80;;;;;;;2.97;67.98;99179.83;104356;1104;82302;-72
2021/04/06 06:36:14;;;;;;;7.43;3.97;;;;;;;2.97;68.28;99186.99;104396;1105;71589;-71
2021/04/06 06:38:25;;;;;;;8.15;3.92;;;;;;;2.96;68.08;99178.19;104434;1104;83761;-73
2021/04/06 06:40:31;;;;;;;8.90;4.53;;;;;;;2.93;68.46;99175.86;104478;1104;78666;-72
2021/04/06 06:42:39;;;;;;;12.85;5.30;;;;;;;2.85;68.49;99177.70;104525;1104;64112;-63
2021/04/06 06:44:45;;;;;;;7.70;4.55;;;;;;;2.82;68.25;99181.55;104376;1104;81356;-64
2021/04/06 06:47:06;;;;;;;10.20;4.35;;;;;;;2.88;69.04;99185.37;104395;1105;70974;-62
2021/04/06 06:49:13;;;;;;;10.77;4.18;;;;;;;2.92;69.02;99181.34;104443;1104;83620;-64
2021/04/06 06:51:19;;;;;;;10.43;5.68;;;;;;;3.02;68.75;99189.17;104393;1104;77476;-64
2021/04/06 06:53:39;;;;;;;7.72;4.40;;;;;;;3.08;68.77;99196.50;104362;1104;64306;-64
2021/04/06 06:55:53;;;;;;;12.68;4.05;;;;;;;3.11;68.59;99191.63;104344;1104;82865;-66
2021/04/06 06:58:06;;;;;;;7.27;4.00;;;;;;;3.13;68.48;99186.14;104407;1104;71780;-68
2021/04/06 07:00:16;;;;;;;10.33;4.50;;;;;;;3.08;68.66;99193.83;104367;1105;85650;-70
2021/04/06 07:02:28;;;;;;;10.27;4.47;;;;;;;3.03;68.42;99198.81;104378;1104;77816;-64
2021/04/06 07:04:33;;;;;;;9.55;4.63;;;;;;;2.95;68.62;99191.67;104388;1104;64182;-64
2021/04/06 07:06:41;;;;;;;8.82;4.78;;;;;;;2.94;68.38;99184.66;104378;1104;81966;-64
2021/04/06 07:08:48;;;;;;;8.65;4.25;;;;;;;2.91;68.56;99177.84;104381;1103;71871;-66
2021/04/06 07:10:58;;;;;;;7.13;4.13;;;;;;;2.97;68.61;99189.66;104359;1104;83580;-67
2021/04/06 07:13:18;;;;;;;9.33;4.47;;;;;;;3.03;68.39;99188.98;104410;1104;77446;-64
2021/04/06 07:15:24;;;;;;;10.43;4.30;;;;;;;3.12;68.73;99193.30;104366;1104;64205;-64
2021/04/06 07:17:33;;;;;;;7.93;3.92;;;;;;;3.11;68.66;99193.45;104373;1104;82371;-65
2021/04/06 07:19:44;;;;;;;11.00;4.40;;;;;;;3.02;68.53;99203.34;104412;1104;72352;-66
2021/04/06 07:21:53;;;;;;;11.13;4.90;;;;;;;3.06;68.62;99201.98;104382;1104;84791;-69
2021/04/06 07:24:06;;;;;;;10.57;4.13;;;;;;;3.12;68.75;99200.47;104385;1104;78588;-67
2021/04/06 07:26:15;;;;;;;8.60;3.97;;;;;;;3.17;68.82;99208.79;104448;1104;64051;-67
2021/04/06 07:28:21;;;;;;;11.20;4.63;;;;;;;3.26;68.57;99208.61;104383;1104;81213;-68
2021/04/06 07:30:28;;;;;;;10.15;4.40;;;;;;;3.30;68.46;99214.41;104451;1104;71904;-65
2021/04/06 07:32:36;;;;;;;10.63;4.05;;;;;;;3.34;68.59;99226.42;104403;1104;84460;-65
2021/04/06 07:34:46;;;;;;;11.97;4.73;;;;;;;3.38;68.08;99228.56;104378;1104;77150;-65
2021/04/06 07:36:53;;;;;;;10.68;4.20;;;;;;;3.42;68.11;99226.39;104335;1104;64186;-65
2021/04/06 07:39:08;;;;;;;10.40;4.40;;;;;;;3.47;68.09;99232.04;104395;1104;80566;-68
2021/04/06 07:41:19;;;;;;;10.43;4.05;;;;;;;3.57;67.85;99224.67;104381;1104;71921;-69
2021/04/06 07:43:29;;;;;;;11.13;4.60;;;;;;;3.63;67.96;99223.12;104400;1104;84072;-64
2021/04/06 07:45:46;;;;;;;7.45;4.03;;;;;;;3.72;67.95;99217.58;104411;1105;78375;-66
2021/04/06 07:47:53;;;;;;;9.27;4.55;;;;;;;3.80;67.81;99219.38;104403;1104;64291;-65
2021/04/06 07:49:58;;;;;;;8.73;4.80;;;;;;;3.88;67.72;99212.15;104378;1104;82700;-65
2021/04/06 07:52:16;;;;;;;8.90;3.83;;;;;;;3.89;67.42;99219.16;104434;1103;72289;-61
2021/04/06 07:54:24;;;;;;;11.48;5.28;;;;;;;3.89;67.29;99218.33;104409;1104;84624;-65
2021/04/06 07:56:55;;;;;;;12.13;4.30;;;;;;;3.91;67.05;99214.47;104430;1104;77181;-64
2021/04/06 07:59:00;;;;;;;9.50;3.80;;;;;;;3.99;67.29;99213.58;104357;1104;64162;-64
2021/04/06 08:01:09;;;;;;;10.07;4.63;;;;;;;4.04;66.93;99213.88;104451;1104;80671;-67
2021/04/06 08:04:03;;;;;;;8.75;3.95;;;;;;;4.05;67.16;99218.23;104388;1104;71764;-66
2021/04/06 08:06:22;;;;;;;11.88;4.40;;;;;;;3.99;66.76;99219.77;104416;1104;83476;-68
2021/04/06 08:08:41;;;;;;;12.68;3.95;;;;;;;3.92;66.52;99217.98;104381;1104;79341;-67
2021/04/06 08:10:53;;;;;;;9.95;5.20;;;;;;;3.82;66.49;99220.05;104379;1104;64339;-66
2021/04/06 08:13:03;;;;;;;11.50;4.27;;;;;;;3.71;66.51;99215.91;104425;1104;80886;-67
2021/04/06 08:15:15;;;;;;;11.07;4.32;;;;;;;3.62;66.38;99216.13;104384;1104;72471;-66
2021/04/06 08:17:54;;;;;;;10.45;4.80;;;;;;;3.49;66.66;99212.17;104404;1104;84199;-66
2021/04/06 08:20:07;;;;;;;12.80;4.00;;;;;;;3.37;66.82;99213.57;104173;1107;78329;-66
2021/04/06 08:22:25;;;;;;;9.48;4.25;;;;;;;3.42;67.00;99213.05;104233;1107;64146;-66
2021/04/06 08:24:30;;;;;;;8.77;4.82;;;;;;;3.47;66.71;99210.68;104176;1105;81910;-67
2021/04/06 08:26:37;;;;;;;9.95;4.70;;;;;;;3.49;66.66;99216.67;104368;1104;72990;-67
2021/04/06 08:28:44;;;;;;;9.00;3.55;;;;;;;3.46;66.59;99222.39;104376;1104;84844;-67
2021/04/06 08:30:49;;;;;;;11.75;4.10;;;;;;;3.54;66.48;99219.68;104403;1104;78350;-68
2021/04/06 08:33:27;;;;;;;11.07;3.53;;;;;;;3.57;66.21;99222.01;104385;1105;63528;-67
2021/04/06 08:36:06;;;;;;;12.00;4.20;;;;;;;3.55;66.13;99222.16;104383;1104;82058;-66
2021/04/06 08:38:45;;;;;;;11.93;3.97;;;;;;;3.56;66.09;99226.51;104435;1105;71480;-65
2021/04/06 08:40:56;;;;;;;13.43;4.85;;;;;;;3.52;65.92;99241.20;104383;1104;84461;-67
2021/04/06 08:43:02;;;;;;;14.25;4.57;;;;;;;3.45;65.78;99252.74;104373;1102;77008;-67
2021/04/06 08:45:11;;;;;;;13.65;4.32;;;;;;;3.46;66.05;99262.43;104417;1104;64362;-67
2021/04/06 08:47:42;;;;;;;9.90;4.50;;;;;;;3.53;66.36;99268.73;104399;1104;81951;-66
2021/04/06 08:49:48;;;;;;;10.05;4.47;;;;;;;3.65;66.56;99258.52;104402;1104;71596;-67
2021/04/06 08:51:56;;;;;;;12.17;5.30;;;;;;;3.76;66.35;99258.97;104393;1104;83569;-66
2021/04/06 08:54:06;;;;;;;14.60;4.88;;;;;;;3.93;66.44;99262.37;104399;1104;78608;-66
2021/04/06 08:56:16;;;;;;;11.73;5.55;;;;;;;4.01;65.82;99265.03;104408;1104;64272;-68
2021/04/06 08:58:22;;;;;;;12.43;5.30;;;;;;;4.07;65.81;99251.78;104351;1104;82965;-67
2021/04/06 09:00:30;;;;;;;10.00;4.68;;;;;;;4.14;65.70;99244.73;104366;1105;71550;-67
2021/04/06 09:02:35;;;;;;;10.98;5.30;;;;;;;4.37;65.54;99243.92;104322;1103;84296;-67
2021/04/06 09:04:42;;;;;;;11.57;5.07;;;;;;;4.61;65.68;99239.22;104241;1104;76945;-68
2021/04/06 09:06:48;;;;;;;14.15;6.25;;;;;;;4.80;65.58;99243.23;104339;1104;64003;-67
2021/04/06 09:08:57;;;;;;;13.35;5.45;;;;;;;4.96;65.04;99248.44;104384;1104;83255;-67
2021/04/06 09:11:08;;;;;;;14.88;5.80;;;;;;;4.99;64.53;99240.05;104441;1104;72495;-67
2021/04/06 09:13:13;;;;;;;15.15;5.93;;;;;;;4.92;64.11;99239.09;104456;1104;84093;-67
2021/04/06 09:15:23;;;;;;;10.95;5.45;;;;;;;4.95;64.48;99241.41;104365;1104;78915;-68
2021/04/06 09:17:32;;;;;;;12.40;5.25;;;;;;;5.03;64.31;99246.68;104457;1104;64070;-68
2021/04/06 09:19:42;;;;;;;10.50;5.57;;;;;;;5.02;64.12;99231.66;104405;1105;81310;-68
2021/04/06 09:21:52;;;;;;;10.20;5.72;;;;;;;5.02;64.30;99239.69;104391;1104;71608;-68
2021/04/06 09:24:00;;;;;;;13.37;5.97;;;;;;;5.04;64.26;99237.65;104397;1104;84251;-67
2021/04/06 09:26:13;;;;;;;13.10;6.63;;;;;;;4.98;63.80;99241.05;104384;1104;77779;-66
2021/04/06 09:28:18;;;;;;;16.98;6.32;;;;;;;4.95;63.57;99238.73;104394;1104;64147;-69
2021/04/06 09:30:35;;;;;;;10.45;4.85;;;;;;;4.94;63.42;99234.41;104388;1104;83151;-67
2021/04/06 09:32:41;;;;;;;15.50;5.80;;;;;;;4.94;63.17;99236.25;104420;1104;71848;-68
2021/04/06 09:34:48;;;;;;;11.10;5.75;;;;;;;4.93;63.43;99246.12;104359;1104;85927;-66
2021/04/06 09:36:57;;;;;;;13.63;5.63;;;;;;;4.91;63.53;99242.80;104376;1104;78797;-67
2021/04/06 09:39:06;;;;;;;13.63;5.07;;;;;;;4.85;63.73;99243.52;104404;1104;64064;-72
2021/04/06 09:41:12;;;;;;;11.65;5.78;;;;;;;4.75;63.44;99240.27;104385;1105;81966;-67
2021/04/06 09:43:21;;;;;;;11.30;5.45;;;;;;;4.60;63.28;99234.03;104408;1104;73144;-67
2021/04/06 09:45:28;;;;;;;9.23;4.90;;;;;;;4.53;63.29;99239.25;104396;1104;85332;-67
2021/04/06 09:47:37;;;;;;;13.80;6.07;;;;;;;4.42;63.12;99233.52;104380;1104;78301;-66
2021/04/06 09:49:45;;;;;;;15.15;5.55;;;;;;;4.41;62.86;99248.73;104398;1105;64112;-66
2021/04/06 09:51:56;;;;;;;13.70;5.28;;;;;;;4.52;63.02;99258.17;104438;1104;81997;-65
2021/04/06 09:54:05;;;;;;;10.25;5.15;;;;;;;4.63;62.66;99265.77;104461;1104;72099;-67
2021/04/06 09:56:11;;;;;;;10.88;4.80;;;;;;;4.62;62.47;99248.05;104362;1104;84415;-70
2021/04/06 09:58:17;;;;;;;12.47;5.37;;;;;;;4.66;62.01;99260.91;104347;1104;79447;-65
2021/04/06 10:00:35;;;;;;;11.20;5.07;;;;;;;4.66;62.54;99254.72;104358;1104;64520;-69
2021/04/06 10:02:42;;;;;;;14.50;6.00;;;;;;;4.70;62.33;99251.50;104322;1105;82241;-63
2021/04/06 10:04:50;;;;;;;16.77;4.13;;;;;;;4.73;62.60;99253.81;104321;1104;71046;-63
2021/04/06 10:07:12;;;;;;;12.00;4.22;;;;;;;4.78;62.48;99257.81;104372;1104;84066;-64
2021/04/06 10:09:26;;;;;;;11.55;3.88;;;;;;;4.79;62.56;99252.27;104286;1105;77504;-63